createdAt,value
2022-11-06T00:00:43.211Z,94.01
2022-11-06T00:01:43.277Z,95.24
2022-11-06T00:02:43.269Z,94.52
2022-11-06T00:03:43.193Z,94.42
2022-11-06T00:04:43.176Z,95.55
2022-11-06T00:05:43.166Z,94.31
2022-11-06T00:06:43.152Z,94.62
2022-11-06T00:07:43.151Z,96.17
2022-11-06T00:08:43.218Z,95.24
2022-11-06T00:09:43.120Z,95.45
2022-11-06T00:10:43.112Z,95.34
2022-11-06T00:11:43.141Z,96.47
2022-11-06T00:12:43.078Z,94.52
2022-11-06T00:13:43.086Z,95.86
2022-11-06T00:14:43.065Z,95.65
2022-11-06T00:15:49.060Z,94.73
2022-11-06T00:16:43.041Z,96.27
2022-11-06T00:17:43.034Z,94.62
2022-11-06T00:18:43.119Z,95.65
2022-11-06T00:19:43.030Z,94.11
2022-11-06T00:20:43.022Z,94.21
2022-11-06T00:21:42.989Z,95.03
2022-11-06T00:22:42.978Z,94.21
2022-11-06T00:23:42.972Z,94.98
2022-11-06T00:24:42.955Z,95.80
2022-11-06T00:25:42.961Z,95.59
2022-11-06T00:26:42.959Z,96.72
2022-11-06T00:27:43.023Z,96.31
2022-11-06T00:28:42.915Z,96.21
2022-11-06T00:29:42.893Z,97.03
2022-11-06T00:30:42.941Z,95.90
2022-11-06T00:31:42.922Z,96.42
2022-11-06T00:32:42.894Z,97.03
2022-11-06T00:33:42.858Z,96.52
2022-11-06T00:34:42.847Z,95.90
2022-11-06T00:35:42.837Z,95.59
2022-11-06T00:36:42.833Z,96.31
2022-11-06T00:37:42.828Z,95.90
2022-11-06T00:38:42.841Z,94.98
2022-11-06T00:39:42.814Z,94.98
2022-11-06T00:40:42.785Z,95.70
2022-11-06T00:41:42.774Z,95.70
2022-11-06T00:42:42.763Z,96.42
2022-11-06T00:43:42.747Z,95.80
2022-11-06T00:44:42.739Z,95.28
2022-11-06T00:45:42.770Z,96.00
2022-11-06T00:46:42.745Z,95.59
2022-11-06T00:47:42.707Z,95.74
2022-11-06T00:48:42.707Z,96.36
2022-11-06T00:49:42.702Z,96.56
2022-11-06T00:50:42.710Z,96.67
2022-11-06T00:51:42.688Z,95.64
2022-11-06T00:52:43.520Z,95.95
2022-11-06T00:53:42.644Z,95.84
2022-11-06T00:54:42.650Z,95.74
2022-11-06T00:55:42.623Z,96.88
2022-11-06T00:56:42.625Z,95.84
2022-11-06T00:57:42.612Z,96.46
2022-11-06T00:58:42.596Z,97.08
2022-11-06T00:59:42.586Z,96.67
2022-11-06T01:00:42.567Z,97.08
2022-11-06T01:01:42.634Z,96.25
2022-11-06T01:02:42.689Z,96.88
2022-11-06T01:03:42.585Z,96.46
2022-11-06T01:04:42.536Z,96.25
2022-11-06T01:05:42.642Z,96.67
2022-11-06T01:06:42.515Z,97.39
2022-11-06T01:07:42.499Z,96.88
2022-11-06T01:08:42.487Z,96.77
2022-11-06T01:09:42.489Z,96.97
2022-11-06T01:10:42.466Z,98.11
2022-11-06T01:12:10.961Z,97.23
2022-11-06T01:12:42.450Z,97.33
2022-11-06T01:13:42.437Z,95.68
2022-11-06T01:14:42.423Z,96.30
2022-11-06T01:15:42.411Z,97.23
2022-11-06T01:16:42.402Z,97.13
2022-11-06T01:17:42.402Z,97.43
2022-11-06T01:18:42.396Z,96.81
2022-11-06T01:19:42.379Z,97.53
2022-11-06T01:20:42.357Z,97.64
2022-11-06T01:21:42.362Z,96.71
2022-11-06T01:22:42.333Z,96.92
2022-11-06T01:23:42.328Z,96.92
2022-11-06T01:24:42.355Z,96.71
2022-11-06T01:25:42.312Z,96.41
2022-11-06T01:26:53.478Z,96.50
2022-11-06T01:27:42.292Z,96.09
2022-11-06T01:28:42.274Z,96.09
2022-11-06T01:29:42.260Z,95.89
2022-11-06T01:30:42.250Z,95.62
2022-11-06T01:31:42.255Z,96.14
2022-11-06T01:32:42.243Z,96.92
2022-11-06T01:33:42.226Z,96.34
2022-11-06T01:34:42.204Z,96.66
2022-11-06T01:35:42.198Z,96.45
2022-11-06T01:36:42.207Z,96.50
2022-11-06T01:37:42.206Z,95.73
2022-11-06T01:38:42.163Z,95.42
2022-11-06T01:39:42.181Z,97.17
2022-11-06T01:40:42.172Z,97.02
2022-11-06T01:41:42.140Z,96.45
2022-11-06T01:42:42.129Z,96.20
2022-11-06T01:43:42.135Z,96.30
2022-11-06T01:44:42.105Z,96.92
2022-11-06T01:45:42.111Z,97.43
2022-11-06T01:46:42.077Z,96.61
2022-11-06T01:47:42.078Z,98.25
2022-11-06T01:48:42.056Z,97.74
2022-11-06T01:49:42.079Z,97.85
2022-11-06T01:50:42.036Z,97.13
2022-11-06T01:51:42.029Z,96.41
2022-11-06T01:52:42.010Z,96.55
2022-11-06T01:53:42.017Z,97.06
2022-11-06T01:54:42.019Z,96.55
2022-11-06T01:55:41.982Z,96.75
2022-11-06T01:56:41.979Z,96.75
2022-11-06T01:57:41.961Z,96.14
2022-11-06T01:58:41.947Z,96.34
2022-11-06T01:59:41.939Z,96.34
2022-11-06T02:00:42.009Z,96.14
2022-11-06T02:01:42.083Z,95.73
2022-11-06T02:02:42.133Z,96.34
2022-11-06T02:03:41.906Z,95.83
2022-11-06T02:04:41.926Z,95.93
2022-11-06T02:05:41.891Z,95.52
2022-11-06T02:06:41.890Z,96.24
2022-11-06T02:07:41.857Z,96.34
2022-11-06T02:08:41.851Z,95.83
2022-11-06T02:09:41.861Z,96.71
2022-11-06T06:00:46.390Z,99.10
2022-11-06T06:01:45.887Z,99.62
2022-11-06T06:02:52.343Z,99.99
2022-11-06T06:03:45.713Z,99.41
2022-11-06T06:04:45.716Z,99.72
2022-11-06T06:05:45.692Z,99.52
2022-11-06T06:06:45.687Z,99.72
2022-11-06T06:07:45.667Z,99.82
2022-11-06T06:08:45.662Z,99.99
2022-11-06T06:09:45.645Z,99.10
2022-11-06T06:10:45.652Z,98.90
2022-11-06T06:11:45.634Z,98.43
2022-11-06T06:12:45.628Z,98.84
2022-11-06T06:13:45.607Z,98.53
2022-11-06T06:14:49.377Z,98.74
2022-11-06T06:15:45.614Z,98.43
2022-11-06T06:16:45.576Z,98.43
2022-11-06T06:17:45.570Z,98.01
2022-11-06T06:18:45.570Z,98.22
2022-11-06T06:19:45.560Z,98.63
2022-11-06T06:20:45.538Z,97.39
2022-11-06T06:21:45.521Z,97.50
2022-11-06T06:22:45.507Z,97.71
2022-11-06T06:23:45.497Z,98.22
2022-11-06T06:24:45.582Z,98.74
2022-11-06T06:25:45.497Z,98.84
2022-11-06T06:26:45.479Z,98.94
2022-11-06T06:27:45.456Z,98.53
2022-11-06T06:28:45.444Z,98.32
2022-11-06T06:29:45.434Z,98.32
2022-11-06T06:30:45.425Z,98.11
2022-11-06T06:31:45.428Z,97.81
2022-11-06T06:32:45.409Z,98.43
2022-11-06T06:33:45.388Z,98.74
2022-11-06T06:34:45.386Z,98.43
2022-11-06T06:35:45.396Z,98.94
2022-11-06T06:36:45.379Z,99.77
2022-11-06T06:37:45.379Z,99.46
2022-11-06T06:38:45.356Z,99.87
2022-11-06T06:39:45.325Z,99.56
2022-11-06T06:40:45.321Z,98.53
2022-11-06T06:41:45.308Z,98.84
2022-11-06T06:42:45.296Z,98.32
2022-11-06T06:43:45.291Z,98.11
2022-11-06T06:44:45.274Z,97.60
2022-11-06T06:45:45.257Z,98.32
2022-11-06T06:46:45.260Z,98.63
2022-11-06T06:47:45.242Z,99.05
2022-11-06T06:48:45.351Z,98.74
2022-11-06T06:49:45.227Z,99.05
2022-11-06T06:50:45.208Z,98.63
2022-11-06T06:51:45.193Z,98.94
2022-11-06T06:52:45.192Z,98.63
2022-11-06T06:53:45.185Z,98.94
2022-11-06T06:54:45.188Z,98.43
2022-11-06T06:55:45.159Z,97.91
2022-11-06T06:56:45.141Z,98.01
2022-11-06T06:57:45.128Z,99.05
2022-11-06T06:58:45.138Z,98.11
2022-11-06T06:59:45.118Z,98.84
2022-11-06T07:00:45.158Z,98.32
2022-11-06T07:01:45.242Z,98.22
2022-11-06T07:02:45.072Z,98.01
2022-11-06T07:03:45.061Z,98.22
2022-11-06T07:04:45.064Z,97.91
2022-11-06T07:05:45.054Z,97.81
2022-11-06T07:06:45.033Z,98.63
2022-11-06T07:07:45.019Z,98.94
2022-11-06T07:08:45.012Z,98.84
2022-11-06T07:09:45.009Z,98.32
2022-11-06T07:10:45.006Z,98.94
2022-11-06T07:11:44.978Z,98.22
2022-11-06T07:12:44.977Z,98.43
2022-11-06T07:13:45.814Z,98.74
2022-11-06T07:14:44.953Z,98.63
2022-11-06T07:15:44.944Z,98.94
2022-11-06T07:16:48.453Z,98.94
2022-11-06T07:17:44.930Z,99.05
2022-11-06T07:18:44.920Z,99.25
2022-11-06T07:19:44.893Z,99.25
2022-11-06T07:20:44.989Z,98.84
2022-11-06T07:21:44.874Z,99.05
2022-11-06T07:22:44.896Z,99.15
2022-11-06T07:23:44.855Z,99.15
2022-11-06T07:24:44.859Z,98.74
2022-11-06T07:25:44.825Z,98.94
2022-11-06T07:26:44.814Z,99.05
2022-11-06T07:27:44.824Z,99.15
2022-11-06T07:28:44.792Z,99.05
2022-11-06T07:29:44.781Z,99.05
2022-11-06T07:30:44.797Z,98.94
2022-11-06T07:31:44.775Z,99.05
2022-11-06T07:32:44.757Z,99.25
2022-11-06T07:33:44.757Z,98.94
2022-11-06T07:34:44.757Z,99.05
2022-11-06T07:35:45.218Z,99.25
2022-11-06T07:36:44.707Z,99.15
2022-11-06T07:37:44.726Z,99.05
2022-11-06T07:38:44.686Z,99.35
2022-11-06T07:39:44.707Z,99.77
2022-11-06T07:40:44.672Z,99.25
2022-11-06T07:41:44.656Z,98.63
2022-11-06T07:42:44.651Z,98.74
2022-11-06T07:43:44.644Z,99.05
2022-11-06T07:44:44.635Z,99.25
2022-11-06T07:45:45.320Z,99.62
2022-11-06T07:46:44.643Z,99.10
2022-11-06T07:47:44.602Z,98.79
2022-11-06T07:48:44.588Z,99.10
2022-11-06T07:49:50.560Z,99.10
2022-11-06T07:50:44.594Z,98.90
2022-11-06T07:51:44.549Z,98.79
2022-11-06T07:52:44.654Z,99.00
2022-11-06T07:53:44.543Z,99.10
2022-11-06T07:54:44.518Z,98.90
2022-11-06T07:55:44.498Z,98.90
2022-11-06T07:56:44.488Z,99.00
2022-11-06T07:57:44.483Z,98.90
2022-11-06T07:58:44.474Z,98.79
2022-11-06T07:59:44.479Z,98.49
2022-11-06T08:00:44.543Z,98.69
2022-11-06T08:01:44.566Z,98.58
2022-11-06T08:02:44.474Z,98.90
2022-11-06T08:03:44.408Z,98.90
2022-11-06T08:04:44.407Z,98.07
2022-11-06T08:05:44.415Z,97.66
2022-11-06T08:06:44.382Z,97.97
2022-11-06T08:07:44.392Z,98.07
2022-11-06T08:08:44.365Z,98.28
2022-11-06T08:09:44.345Z,98.49
2022-11-06T08:10:44.341Z,97.55
2022-11-06T08:11:44.348Z,97.66
2022-11-06T08:12:44.322Z,97.66
2022-11-06T08:13:44.309Z,97.76
2022-11-06T08:14:44.299Z,98.18
2022-11-06T08:15:44.326Z,98.28
2022-11-06T08:16:44.276Z,97.30
2022-11-06T08:17:44.252Z,97.41
2022-11-06T08:18:44.253Z,96.99
2022-11-06T08:19:44.248Z,96.89
2022-11-06T08:20:44.254Z,96.99
2022-11-06T08:21:44.228Z,96.99
2022-11-06T08:22:44.237Z,96.99
2022-11-06T08:23:44.238Z,97.61
2022-11-06T08:24:44.285Z,97.30
2022-11-06T08:25:44.181Z,97.30
2022-11-06T08:26:44.183Z,97.30
2022-11-06T08:27:44.149Z,97.51
2022-11-06T08:28:44.174Z,97.72
2022-11-06T08:29:44.132Z,97.30
2022-11-06T08:30:44.125Z,98.13
2022-11-06T08:31:44.107Z,98.13
2022-11-06T08:32:44.098Z,98.85
2022-11-06T08:33:44.096Z,98.33
2022-11-06T08:34:44.103Z,97.61
2022-11-06T08:35:44.060Z,97.92
2022-11-06T08:36:48.395Z,98.13
2022-11-06T08:37:44.051Z,98.02
2022-11-06T08:38:44.031Z,98.13
2022-11-06T08:39:44.043Z,98.13
2022-11-06T08:40:47.099Z,98.23
2022-11-06T08:41:44.005Z,98.23
2022-11-06T08:42:43.987Z,98.44
2022-11-06T08:43:43.981Z,98.33
2022-11-06T08:44:43.970Z,98.54
2022-11-06T08:45:44.026Z,98.33
2022-11-06T08:46:47.843Z,97.41
2022-11-06T08:47:43.951Z,97.30
2022-11-06T08:48:43.924Z,97.26
2022-11-06T08:49:43.924Z,97.47
2022-11-06T08:50:43.912Z,97.67
2022-11-06T08:51:43.923Z,98.08
2022-11-06T08:52:43.896Z,97.56
2022-11-06T08:53:43.900Z,97.36
2022-11-06T08:54:43.851Z,97.47
2022-11-06T08:55:43.850Z,96.95
2022-11-06T08:56:43.838Z,97.47
2022-11-06T08:57:43.867Z,97.05
2022-11-06T08:58:43.817Z,97.56
2022-11-06T08:59:43.807Z,97.56
2022-11-06T09:00:43.862Z,97.77
2022-11-06T09:01:43.937Z,97.56
2022-11-06T09:02:43.787Z,97.16
2022-11-06T09:03:43.772Z,97.16
2022-11-06T09:04:43.750Z,97.16
2022-11-06T09:05:43.741Z,97.47
2022-11-06T09:06:43.728Z,97.56
2022-11-06T09:07:43.766Z,97.56
2022-11-06T09:08:43.731Z,97.36
2022-11-06T09:09:43.697Z,97.16
2022-11-06T09:10:43.685Z,97.47
2022-11-06T09:11:43.679Z,97.67
2022-11-06T09:12:43.692Z,97.67
2022-11-06T09:13:43.660Z,97.88
2022-11-06T09:14:43.646Z,97.47
2022-11-06T09:15:43.633Z,96.53
2022-11-06T09:16:43.620Z,96.74
2022-11-06T09:17:43.606Z,96.84
2022-11-06T09:18:43.650Z,96.49
2022-11-06T09:19:43.584Z,96.59
2022-11-06T09:20:43.572Z,95.98
2022-11-06T09:21:43.570Z,95.67
2022-11-06T09:22:43.549Z,96.18
2022-11-06T09:23:43.542Z,96.39
2022-11-06T09:25:02.700Z,95.87
2022-11-06T09:25:43.538Z,95.77
2022-11-06T09:26:43.505Z,95.15
2022-11-06T09:27:43.505Z,95.42
2022-11-06T09:28:43.489Z,95.21
2022-11-06T09:29:43.478Z,95.62
2022-11-06T09:30:43.489Z,96.03
2022-11-06T09:31:43.478Z,95.31
2022-11-06T09:32:43.468Z,95.31
2022-11-06T09:33:43.444Z,95.83
2022-11-06T09:34:43.432Z,95.83
2022-11-06T09:35:43.419Z,94.49
2022-11-06T09:36:43.429Z,94.38
2022-11-06T09:37:43.393Z,94.70
2022-11-06T09:38:43.388Z,95.00
2022-11-06T09:39:43.375Z,94.28
2022-11-06T09:40:43.365Z,94.38
2022-11-06T09:41:43.357Z,94.49
2022-11-06T09:42:43.357Z,94.59
2022-11-06T09:44:04.192Z,94.85
2022-11-06T09:44:43.324Z,94.34
2022-11-06T09:45:43.312Z,93.41
2022-11-06T09:46:43.300Z,92.69
2022-11-06T09:47:43.289Z,93.21
2022-11-06T09:48:43.293Z,92.90
2022-11-06T09:49:43.266Z,93.83
2022-11-06T09:50:43.251Z,93.93
2022-11-06T09:51:43.234Z,94.13
2022-11-06T09:52:43.225Z,94.51
2022-11-06T09:53:43.220Z,94.09
2022-11-06T09:54:43.240Z,93.79
2022-11-06T09:55:43.205Z,93.27
2022-11-06T09:56:43.208Z,93.16
2022-11-06T09:57:43.183Z,93.37
2022-11-06T09:58:43.167Z,92.44
2022-11-06T09:59:43.157Z,92.44
2022-11-06T10:00:43.259Z,92.14
2022-11-06T10:01:43.232Z,92.44
2022-11-06T10:02:43.283Z,91.21
2022-11-06T10:03:43.110Z,91.72
2022-11-06T10:04:43.642Z,92.55
2022-11-06T10:05:43.092Z,92.96
2022-11-06T10:06:43.097Z,91.72
2022-11-06T10:07:43.093Z,92.14
2022-11-06T10:08:43.066Z,92.10
2022-11-06T10:09:43.040Z,92.50
2022-11-06T10:10:43.024Z,93.33
2022-11-06T10:11:43.034Z,93.02
2022-11-06T10:12:43.004Z,91.58
2022-11-06T10:13:43.024Z,92.10
2022-11-06T10:14:42.995Z,91.27
2022-11-06T10:15:43.020Z,90.45
2022-11-06T10:16:42.968Z,91.78
2022-11-06T10:17:42.966Z,90.75
2022-11-06T10:18:42.950Z,90.03
2022-11-06T10:19:42.941Z,91.78
2022-11-06T10:20:42.931Z,91.44
2022-11-06T10:21:42.915Z,91.13
2022-11-06T10:22:42.895Z,91.02
2022-11-06T10:23:42.900Z,89.38
2022-11-06T10:24:42.904Z,91.95
2022-11-06T10:25:42.874Z,90.81
2022-11-06T10:26:42.871Z,90.61
2022-11-06T10:27:42.853Z,91.23
2022-11-06T10:28:42.836Z,91.33
2022-11-06T10:29:42.823Z,91.33
2022-11-06T10:30:42.845Z,90.09
2022-11-06T10:31:42.807Z,91.02
2022-11-06T10:32:42.830Z,89.34
2022-11-06T10:33:42.784Z,89.85
2022-11-06T10:34:42.782Z,88.62
2022-11-06T10:35:42.775Z,90.36
2022-11-06T10:36:46.122Z,90.26
2022-11-06T10:37:42.745Z,89.95
2022-11-06T10:38:42.733Z,90.57
2022-11-06T10:39:42.738Z,89.75
2022-11-06T10:40:42.727Z,89.85
2022-11-06T10:41:42.697Z,89.54
2022-11-06T10:42:42.691Z,90.06
2022-11-06T10:43:42.685Z,91.19
2022-11-06T10:44:42.672Z,88.92
2022-11-06T10:45:42.656Z,89.03
2022-11-06T10:46:42.655Z,90.06
2022-11-06T10:47:42.651Z,89.54
2022-11-06T10:48:42.648Z,89.54
2022-11-06T10:49:42.627Z,89.91
2022-11-06T10:50:42.598Z,90.01
2022-11-06T10:51:42.592Z,90.94
2022-11-06T10:52:42.574Z,89.29
2022-11-06T10:53:42.592Z,88.78
2022-11-06T10:54:42.557Z,88.57
2022-11-06T10:55:42.545Z,87.65
2022-11-06T10:56:42.534Z,87.96
2022-11-06T10:57:42.550Z,88.47
2022-11-06T10:58:42.545Z,88.27
2022-11-06T10:59:42.499Z,87.55
2022-11-06T11:00:42.567Z,89.29
2022-11-06T11:01:42.620Z,88.89
2022-11-06T11:02:42.550Z,89.29
2022-11-06T11:03:42.491Z,88.98
2022-11-06T11:04:42.479Z,88.57
2022-11-06T11:05:42.457Z,86.83
2022-11-06T11:06:42.426Z,88.47
2022-11-06T11:07:42.465Z,87.30
2022-11-06T11:08:42.430Z,87.92
2022-11-06T11:09:42.430Z,87.20
2022-11-06T11:10:42.427Z,86.07
2022-11-06T11:11:42.433Z,88.12
2022-11-06T11:12:42.360Z,87.71
2022-11-06T11:13:42.441Z,86.27
2022-11-06T11:14:42.407Z,86.99
2022-11-06T11:15:42.369Z,86.89
2022-11-06T11:16:42.375Z,87.61
2022-11-06T11:17:42.375Z,88.74
2022-11-06T11:18:42.297Z,87.61
2022-11-06T11:19:42.445Z,88.12
2022-11-06T11:20:42.291Z,85.66
2022-11-06T11:21:42.287Z,85.25
2022-11-06T11:22:42.327Z,85.86
2022-11-06T11:23:42.249Z,87.37
2022-11-06T11:24:42.230Z,86.95
2022-11-06T11:25:42.225Z,87.98
2022-11-06T11:26:42.233Z,87.98
2022-11-06T11:27:42.217Z,88.08
2022-11-06T11:28:42.192Z,85.72
2022-11-06T11:29:42.187Z,85.93
2022-11-06T11:30:42.162Z,88.29
2022-11-06T11:31:42.161Z,89.31
2022-11-06T11:32:42.142Z,89.42
2022-11-06T11:33:43.157Z,87.98
2022-11-06T11:34:47.635Z,87.22
2022-11-06T11:35:42.133Z,86.33
2022-11-06T11:36:42.100Z,85.99
2022-11-06T11:37:42.095Z,85.89
2022-11-06T11:38:42.104Z,85.78
2022-11-06T11:39:42.073Z,88.14
2022-11-06T11:40:42.060Z,86.09
2022-11-06T11:41:42.043Z,87.02
2022-11-06T11:42:42.047Z,85.27
2022-11-06T11:43:48.116Z,83.83
2022-11-06T11:44:42.112Z,84.20
2022-11-06T11:45:42.025Z,85.13
2022-11-06T11:46:41.995Z,85.03
2022-11-06T11:47:41.985Z,84.52
2022-11-06T11:48:41.983Z,83.49
2022-11-06T11:49:41.957Z,83.90
2022-11-06T11:50:41.946Z,82.77
2022-11-06T11:51:41.940Z,82.56
2022-11-06T11:52:42.816Z,82.77
2022-11-06T11:53:41.914Z,81.54
2022-11-06T11:54:41.934Z,83.59
2022-11-06T11:55:41.897Z,83.04
2022-11-06T11:57:03.614Z,83.34
2022-11-06T11:57:41.876Z,84.88
2022-11-06T11:58:41.858Z,85.91
2022-11-06T11:59:41.884Z,84.88
2022-11-06T12:00:41.857Z,82.93
2022-11-06T12:01:41.953Z,81.40
2022-11-06T12:02:41.930Z,84.33
2022-11-06T12:03:41.817Z,81.36
2022-11-06T12:04:42.772Z,80.33
2022-11-06T12:05:41.805Z,82.79
2022-11-06T12:06:41.794Z,82.04
2022-11-06T12:07:46.004Z,81.52
2022-11-06T12:08:41.751Z,82.35
2022-11-06T12:09:41.753Z,82.65
2022-11-06T12:10:41.743Z,82.71
2022-11-06T12:11:41.741Z,82.21
2022-11-06T12:12:41.710Z,81.49
2022-11-06T12:13:41.710Z,79.64
2022-11-06T12:15:34.574Z,79.50
2022-11-06T12:16:35.556Z,81.15
2022-11-06T12:17:35.536Z,80.63
2022-11-06T12:18:35.527Z,81.35
2022-11-06T12:19:35.528Z,79.50
2022-11-06T12:20:35.508Z,78.89
2022-11-06T12:21:35.518Z,76.95
2022-11-06T12:22:35.486Z,76.34
2022-11-06T12:23:35.470Z,75.99
2022-11-06T12:24:35.462Z,79.98
2022-11-06T12:25:35.455Z,79.37
2022-11-06T12:26:35.454Z,78.34
2022-11-06T12:27:35.446Z,79.37
2022-11-06T12:28:35.421Z,78.75
2022-11-06T12:29:35.408Z,75.79
2022-11-06T12:30:35.409Z,77.32
2022-11-06T12:31:35.405Z,78.55
2022-11-06T12:32:35.386Z,78.04
2022-11-06T12:34:04.517Z,78.04
2022-11-06T12:34:35.357Z,75.89
2022-11-06T12:35:35.341Z,77.53
2022-11-06T12:36:35.344Z,76.61
2022-11-06T12:37:35.346Z,76.67
2022-11-06T12:38:35.312Z,77.59
2022-11-06T12:39:35.308Z,76.88
2022-11-06T12:40:35.283Z,77.59
2022-11-06T12:41:35.375Z,78.20
2022-11-06T12:42:35.276Z,78.52
2022-11-06T12:43:35.261Z,76.67
2022-11-06T12:44:35.247Z,75.14
2022-11-06T12:45:35.230Z,77.19
2022-11-06T12:46:35.228Z,77.19
2022-11-06T12:47:35.214Z,76.67
2022-11-06T12:48:35.212Z,74.80
2022-11-06T12:49:35.199Z,75.92
2022-11-06T12:50:35.185Z,76.23
2022-11-06T12:51:35.167Z,76.84
2022-11-06T12:52:35.171Z,75.82
2022-11-06T12:53:35.153Z,78.58
2022-11-06T12:54:35.153Z,76.12
2022-11-06T12:55:35.132Z,76.12
2022-11-06T12:56:35.118Z,73.68
2022-11-06T12:57:35.097Z,76.64
2022-11-06T12:58:35.121Z,74.08
2022-11-06T12:59:35.080Z,75.31
2022-11-06T13:00:35.066Z,74.18
2022-11-06T13:01:35.212Z,76.94
2022-11-06T13:02:35.104Z,75.92
2022-11-06T13:03:35.043Z,75.51
2022-11-06T13:04:35.082Z,75.10
2022-11-06T13:05:35.019Z,72.55
2022-11-06T13:06:35.005Z,74.25
2022-11-06T13:07:34.998Z,75.27
2022-11-06T13:08:35.011Z,75.99
2022-11-06T13:09:34.977Z,75.37
2022-11-06T13:10:34.979Z,73.23
2022-11-06T13:11:34.960Z,77.42
2022-11-06T13:12:34.949Z,76.19
2022-11-06T13:13:34.941Z,75.99
2022-11-06T13:14:34.932Z,75.07
2022-11-06T13:15:34.930Z,75.27
2022-11-06T13:16:37.214Z,75.78
2022-11-06T13:17:34.900Z,78.85
2022-11-06T13:18:34.887Z,74.87
2022-11-06T13:19:34.869Z,76.19
2022-11-06T13:20:34.868Z,74.87
2022-11-06T13:21:34.845Z,77.22
2022-11-06T13:22:34.824Z,76.29
2022-11-06T13:23:34.853Z,75.37
2022-11-06T13:24:34.818Z,76.40
2022-11-06T13:25:39.318Z,77.62
2022-11-06T13:26:34.794Z,75.78
2022-11-06T13:27:34.789Z,74.66
2022-11-06T13:28:34.772Z,76.29
2022-11-06T13:29:34.773Z,77.72
2022-11-06T13:30:34.769Z,76.40
2022-11-06T13:31:34.736Z,75.89
2022-11-06T13:32:34.727Z,77.72
2022-11-06T13:33:34.721Z,77.52
2022-11-06T13:34:34.723Z,74.66
2022-11-06T13:35:34.690Z,76.81
2022-11-06T13:36:34.675Z,74.35
2022-11-06T13:37:34.684Z,75.37
2022-11-06T13:38:34.663Z,76.70
2022-11-06T13:39:34.674Z,75.68
2022-11-06T13:40:34.628Z,77.01
2022-11-06T13:41:34.629Z,76.36
2022-11-06T13:42:34.621Z,78.00
2022-11-06T13:43:34.611Z,75.34
2022-11-06T13:44:34.599Z,74.22
2022-11-06T13:45:34.614Z,71.87
2022-11-06T13:46:34.575Z,70.85
2022-11-06T13:47:34.566Z,74.63
2022-11-06T13:48:37.242Z,77.48
2022-11-06T13:49:34.582Z,73.91
2022-11-06T13:50:34.647Z,74.93
2022-11-06T13:51:34.523Z,73.10
2022-11-06T13:52:34.510Z,73.19
2022-11-06T13:53:34.491Z,72.38
2022-11-06T13:54:34.480Z,71.87
2022-11-06T13:55:34.517Z,74.73
2022-11-06T13:56:34.461Z,75.44
2022-11-06T13:57:34.448Z,76.36
2022-11-06T13:58:34.450Z,74.93
2022-11-06T13:59:34.585Z,77.08
2022-11-06T14:00:34.433Z,76.77
2022-11-06T14:01:34.718Z,74.01
2022-11-06T14:02:34.552Z,74.73
2022-11-06T14:03:34.399Z,78.30
2022-11-06T14:04:34.388Z,78.00
2022-11-06T14:05:34.368Z,76.87
2022-11-06T14:06:34.360Z,73.19
2022-11-06T14:07:34.365Z,73.81
2022-11-06T14:08:34.331Z,74.52
2022-11-06T14:09:34.326Z,76.77
2022-11-06T14:10:34.331Z,76.97
2022-11-06T14:11:34.306Z,75.75
2022-11-06T14:12:34.295Z,74.01
2022-11-06T14:13:34.324Z,77.79
2022-11-06T14:14:34.267Z,75.04
2022-11-06T14:15:34.261Z,74.42
2022-11-06T14:16:34.245Z,75.65
2022-11-06T14:17:34.282Z,75.13
2022-11-06T14:18:34.219Z,74.73
2022-11-06T14:19:34.216Z,75.34
2022-11-06T14:20:34.197Z,75.85
2022-11-06T14:21:34.207Z,77.69
2022-11-06T14:22:34.177Z,77.08
2022-11-06T14:23:34.185Z,77.79
2022-11-06T14:24:34.157Z,79.22
2022-11-06T14:25:34.147Z,79.83
2022-11-06T14:26:34.134Z,79.52
2022-11-06T14:27:34.123Z,75.85
2022-11-06T14:28:34.136Z,76.36
2022-11-06T14:29:34.104Z,75.75
2022-11-06T14:31:05.575Z,77.59
2022-11-06T14:31:34.092Z,77.69
2022-11-06T14:32:34.085Z,77.69
2022-11-06T14:33:34.081Z,78.71
2022-11-06T14:34:34.053Z,80.04
2022-11-06T14:35:34.043Z,79.02
2022-11-06T14:36:34.027Z,80.24
2022-11-06T14:37:34.035Z,77.79
2022-11-06T14:38:34.008Z,78.00
2022-11-06T14:39:33.997Z,79.32
2022-11-06T14:40:34.001Z,78.71
2022-11-06T14:41:34.025Z,78.71
2022-11-06T14:42:33.959Z,77.48
2022-11-06T14:43:33.968Z,78.30
2022-11-06T14:44:33.939Z,80.04
2022-11-06T14:45:33.947Z,79.63
2022-11-06T14:46:33.931Z,81.46
2022-11-06T14:47:33.949Z,76.97
2022-11-06T14:48:33.914Z,79.63
2022-11-06T14:49:33.895Z,80.34
2022-11-06T14:50:33.903Z,80.34
2022-11-06T14:51:33.875Z,80.85
2022-11-06T14:52:33.856Z,78.50
2022-11-06T14:53:33.845Z,78.34
2022-11-06T14:54:33.829Z,80.48
2022-11-06T14:55:33.842Z,79.66
2022-11-06T14:56:33.809Z,79.66
2022-11-06T14:57:33.800Z,80.58
2022-11-06T14:58:33.789Z,78.54
2022-11-06T14:59:33.782Z,78.54
2022-11-06T15:00:33.789Z,80.07
2022-11-06T15:01:33.864Z,78.03
2022-11-06T15:02:33.845Z,77.83
2022-11-06T15:03:33.733Z,78.03
2022-11-06T15:04:33.728Z,78.64
2022-11-06T15:05:35.470Z,77.72
2022-11-06T15:06:33.758Z,78.03
2022-11-06T15:08:03.189Z,79.46
2022-11-06T15:08:33.697Z,80.07
2022-11-06T15:09:33.750Z,76.60
2022-11-06T15:10:33.728Z,77.52
2022-11-06T15:11:33.672Z,79.05
2022-11-06T15:12:33.685Z,78.54
2022-11-06T15:13:33.640Z,79.16
2022-11-06T15:14:33.619Z,80.38
2022-11-06T15:15:33.629Z,80.18
2022-11-06T15:16:33.589Z,80.38
2022-11-06T15:17:33.608Z,80.21
2022-11-06T15:18:33.606Z,81.74
2022-11-06T15:19:33.581Z,80.32
2022-11-06T15:20:33.601Z,78.38
2022-11-06T15:21:33.577Z,81.24
2022-11-06T15:22:33.527Z,80.62
2022-11-06T15:23:33.511Z,80.62
2022-11-06T15:24:33.517Z,80.11
2022-11-06T15:25:33.513Z,80.42
2022-11-06T15:26:33.495Z,78.38
2022-11-06T15:27:33.478Z,82.36
2022-11-06T15:28:33.491Z,80.52
2022-11-06T15:29:33.450Z,80.21
2022-11-06T15:30:33.444Z,81.74
2022-11-06T15:31:33.433Z,81.07
2022-11-06T15:32:33.428Z,80.76
2022-11-06T15:33:33.406Z,80.66
2022-11-06T15:34:33.412Z,81.79
2022-11-06T15:35:33.387Z,80.35
2022-11-06T15:36:33.375Z,80.46
2022-11-06T15:37:33.367Z,77.80
2022-11-06T15:38:33.387Z,79.13
2022-11-06T15:39:33.343Z,79.64
2022-11-06T15:40:33.345Z,80.46
2022-11-06T15:41:33.320Z,79.23
2022-11-06T15:42:33.337Z,80.15
2022-11-06T15:43:33.321Z,80.87
2022-11-06T15:44:33.309Z,81.38
2022-11-06T15:45:33.281Z,82.09
2022-11-06T15:46:33.274Z,79.94
2022-11-06T15:47:33.261Z,80.97
2022-11-06T15:48:33.271Z,80.39
2022-11-06T15:49:33.243Z,79.88
2022-11-06T15:50:33.271Z,80.49
2022-11-06T15:51:33.211Z,82.03
2022-11-06T15:52:33.268Z,81.82
2022-11-06T15:53:38.243Z,81.10
2022-11-06T15:54:33.235Z,79.16
2022-11-06T15:55:33.187Z,80.29
2022-11-06T15:56:33.183Z,82.54
2022-11-06T15:57:33.219Z,83.66
2022-11-06T15:58:33.149Z,82.13
2022-11-06T15:59:33.126Z,81.93
2022-11-06T16:00:33.146Z,79.57
2022-11-06T16:01:33.278Z,80.49
2022-11-06T16:02:33.310Z,80.69
2022-11-06T16:03:33.080Z,79.68
2022-11-06T16:04:33.077Z,79.98
2022-11-06T16:05:33.058Z,81.51
2022-11-06T16:06:33.069Z,80.19
2022-11-06T16:07:33.044Z,78.34
2022-11-06T16:08:33.053Z,79.06
2022-11-06T16:09:33.074Z,78.86
2022-11-06T16:10:33.029Z,78.45
2022-11-06T16:11:32.995Z,77.73
2022-11-06T16:12:33.004Z,80.12
2022-11-06T16:13:32.984Z,77.36
2022-11-06T16:14:33.006Z,77.87
2022-11-06T16:15:32.952Z,78.38
2022-11-06T16:16:32.941Z,80.12
2022-11-06T16:17:32.935Z,79.61
2022-11-06T16:18:32.971Z,80.08
2022-11-06T16:19:32.991Z,79.50
2022-11-06T16:20:32.981Z,78.79
2022-11-06T16:21:32.939Z,80.12
2022-11-06T16:22:32.937Z,79.41
2022-11-06T16:23:37.763Z,79.61
2022-11-06T16:24:32.918Z,79.82
2022-11-06T16:25:32.905Z,78.38
2022-11-06T16:26:32.938Z,79.30
2022-11-06T16:27:32.875Z,78.89
2022-11-06T16:28:32.876Z,78.79
2022-11-06T16:29:32.958Z,77.87
2022-11-06T16:30:32.846Z,79.50
2022-11-06T16:31:32.868Z,80.02
2022-11-06T16:32:32.826Z,80.74
2022-11-06T16:33:32.836Z,80.74
2022-11-06T16:34:32.813Z,79.61
2022-11-06T16:35:32.785Z,78.89
2022-11-06T16:36:32.781Z,79.10
2022-11-06T16:37:32.773Z,81.76
2022-11-06T16:38:41.061Z,80.63
2022-11-06T16:39:48.341Z,79.30
2022-11-06T16:40:32.745Z,80.22
2022-11-06T16:41:32.727Z,77.87
2022-11-06T16:42:32.732Z,78.38
2022-11-06T16:43:32.732Z,79.20